map of AOJ home
AOJ - Airport
Location
City:  Aomori, Aomori, Japan
ICAO:RJSA
IATA:AOJ

Details
Type:Airport (Aerodrome, Airfield)
Use:Public/Civil
Latitude:40°44'05"N (40.734722)
Longitude:140°41'27"E (140.690833)
Datum:WGS 1984
Elevation:664 ft (202 m)
Variation:9.04°W (WMM2015v2 magnetic declination)
-0.06° annual change
Runways:1
Longest:9846 × 200 ft (3001 × 61 m), paved

Time
Time Zone:UTC+9
Local Time:

Weather
METAR:RJSA 041241Z 25016KT 2000 R24/1200VP1800U -SHSN FEW002 SCT004 BKN010 M05/M06 Q1015 RMK 1ST002 4ST004 6ST010 A2999
TAF:RJSA 041105Z 0412/0518 26015KT 8000 -SHSN FEW010 BKN020 BKN030
TEMPO 0412/0418 26020G30KT 0500 SHSN BLSN VV003
TEMPO 0418/0503 1500 -SHSN FEW005 BKN008 BKN015
TEMPO 0509/0512 3000 -SHSN

Related Locations
Nearby:
Farthest:SJEN: 11521 mi / 18540 km
Santa Vitória do Palmar [Pista Plá e Silva], RS, BR

Find:

   beyond  
but within

Other Information
Maps:
NOTAMs:
Links:
Sources:

  
  • flag of Japan
  • flag of Aomori
  • flag of Aomori
  

Sectional Chart

Flight Planning
at skyvector.com

Satellite Image

Google Maps Satellite view

 

Copyright © 2004-2019 Karl L. Swartz. All rights reserved.
The Great Circle Mapper name and logo are trademarks of the Great Circle Mapper.
All other trademarks mentioned herein belong to their respective owners.
Please see credits for attibutions and further copyright information.

  Follow gcmap on Facebook Follow gcmap on Twitter GCmap on LinkedIn

hCard Microformat

Geo Microformat